sensor_id;sensor_type;location;lat;lon;timestamp;temperature;humidity
20722;DHT22;10522;52.198;9.890;2023-04-24T00:00:51;11.90;99.90
20722;DHT22;10522;52.198;9.890;2023-04-24T00:03:18;11.80;99.90
20722;DHT22;10522;52.198;9.890;2023-04-24T00:05:46;11.80;99.90
20722;DHT22;10522;52.198;9.890;2023-04-24T00:08:12;11.90;99.90
20722;DHT22;10522;52.198;9.890;2023-04-24T00:10:37;11.80;99.90
20722;DHT22;10522;52.198;9.890;2023-04-24T00:13:03;11.80;99.90
20722;DHT22;10522;52.198;9.890;2023-04-24T00:15:28;11.80;99.90
20722;DHT22;10522;52.198;9.890;2023-04-24T00:17:54;11.90;99.90
20722;DHT22;10522;52.198;9.890;2023-04-24T00:20:20;11.80;99.90
20722;DHT22;10522;52.198;9.890;2023-04-24T00:22:46;11.80;99.90
20722;DHT22;10522;52.198;9.890;2023-04-24T00:25:12;11.80;99.90
20722;DHT22;10522;52.198;9.890;2023-04-24T00:27:37;11.80;99.90
20722;DHT22;10522;52.198;9.890;2023-04-24T00:30:04;11.80;99.90
20722;DHT22;10522;52.198;9.890;2023-04-24T00:32:30;11.80;99.90
20722;DHT22;10522;52.198;9.890;2023-04-24T00:34:55;11.80;99.90
20722;DHT22;10522;52.198;9.890;2023-04-24T00:37:21;11.80;99.90
20722;DHT22;10522;52.198;9.890;2023-04-24T00:39:46;11.70;99.90
20722;DHT22;10522;52.198;9.890;2023-04-24T00:42:12;11.60;99.90
20722;DHT22;10522;52.198;9.890;2023-04-24T00:44:38;11.60;99.90
20722;DHT22;10522;52.198;9.890;2023-04-24T00:47:04;11.50;99.90
20722;DHT22;10522;52.198;9.890;2023-04-24T00:49:30;11.50;99.90
20722;DHT22;10522;52.198;9.890;2023-04-24T00:51:55;11.40;99.90
20722;DHT22;10522;52.198;9.890;2023-04-24T00:54:22;11.30;99.90
20722;DHT22;10522;52.198;9.890;2023-04-24T00:56:48;11.20;99.90
20722;DHT22;10522;52.198;9.890;2023-04-24T00:59:16;11.20;99.90
20722;DHT22;10522;52.198;9.890;2023-04-24T01:01:43;11.10;99.90
20722;DHT22;10522;52.198;9.890;2023-04-24T01:04:11;11.10;99.90
20722;DHT22;10522;52.198;9.890;2023-04-24T01:06:39;11.00;99.90
20722;DHT22;10522;52.198;9.890;2023-04-24T01:09:05;11.20;99.90
20722;DHT22;10522;52.198;9.890;2023-04-24T01:11:31;11.00;99.90
20722;DHT22;10522;52.198;9.890;2023-04-24T01:13:57;11.10;99.90
20722;DHT22;10522;52.198;9.890;2023-04-24T01:16:22;11.10;99.90
20722;DHT22;10522;52.198;9.890;2023-04-24T01:18:48;11.10;99.90
20722;DHT22;10522;52.198;9.890;2023-04-24T01:21:15;11.20;99.90
20722;DHT22;10522;52.198;9.890;2023-04-24T01:23:43;11.10;99.90
20722;DHT22;10522;52.198;9.890;2023-04-24T01:26:08;11.10;99.90
20722;DHT22;10522;52.198;9.890;2023-04-24T01:28:34;11.20;99.90
20722;DHT22;10522;52.198;9.890;2023-04-24T01:31:00;11.20;99.90
20722;DHT22;10522;52.198;9.890;2023-04-24T01:33:26;11.30;99.90
20722;DHT22;10522;52.198;9.890;2023-04-24T01:35:52;11.30;99.90
20722;DHT22;10522;52.198;9.890;2023-04-24T01:38:17;11.30;99.90
20722;DHT22;10522;52.198;9.890;2023-04-24T01:40:43;11.30;99.90
20722;DHT22;10522;52.198;9.890;2023-04-24T01:43:08;11.30;99.90
20722;DHT22;10522;52.198;9.890;2023-04-24T01:45:34;11.30;99.90
20722;DHT22;10522;52.198;9.890;2023-04-24T01:48:00;11.20;99.90
20722;DHT22;10522;52.198;9.890;2023-04-24T01:50:26;11.30;99.90
20722;DHT22;10522;52.198;9.890;2023-04-24T01:52:51;11.30;99.90
20722;DHT22;10522;52.198;9.890;2023-04-24T01:55:17;11.20;99.90
20722;DHT22;10522;52.198;9.890;2023-04-24T01:57:43;11.20;99.90
20722;DHT22;10522;52.198;9.890;2023-04-24T02:00:09;11.20;99.90
20722;DHT22;10522;52.198;9.890;2023-04-24T02:02:38;11.10;99.90
20722;DHT22;10522;52.198;9.890;2023-04-24T02:05:06;11.00;99.90
20722;DHT22;10522;52.198;9.890;2023-04-24T02:07:31;11.00;99.90
20722;DHT22;10522;52.198;9.890;2023-04-24T02:09:58;10.90;99.90
20722;DHT22;10522;52.198;9.890;2023-04-24T02:12:23;10.80;99.90
20722;DHT22;10522;52.198;9.890;2023-04-24T02:14:49;10.80;99.90
20722;DHT22;10522;52.198;9.890;2023-04-24T02:17:14;10.80;99.90
20722;DHT22;10522;52.198;9.890;2023-04-24T02:19:41;10.70;99.90
20722;DHT22;10522;52.198;9.890;2023-04-24T02:22:07;10.70;99.90
20722;DHT22;10522;52.198;9.890;2023-04-24T02:24:32;10.60;99.90
20722;DHT22;10522;52.198;9.890;2023-04-24T02:26:58;10.60;99.90
20722;DHT22;10522;52.198;9.890;2023-04-24T02:29:23;10.60;99.90
20722;DHT22;10522;52.198;9.890;2023-04-24T02:31:49;10.60;99.90
20722;DHT22;10522;52.198;9.890;2023-04-24T02:34:15;10.60;99.90
20722;DHT22;10522;52.198;9.890;2023-04-24T02:36:41;10.60;99.90
20722;DHT22;10522;52.198;9.890;2023-04-24T02:39:07;10.60;99.90
20722;DHT22;10522;52.198;9.890;2023-04-24T02:41:32;10.60;99.90
20722;DHT22;10522;52.198;9.890;2023-04-24T02:43:58;10.60;99.90
20722;DHT22;10522;52.198;9.890;2023-04-24T02:46:24;10.50;99.90
20722;DHT22;10522;52.198;9.890;2023-04-24T02:48:50;10.50;99.90
20722;DHT22;10522;52.198;9.890;2023-04-24T02:51:15;10.50;99.90
20722;DHT22;10522;52.198;9.890;2023-04-24T02:53:41;10.50;99.90
20722;DHT22;10522;52.198;9.890;2023-04-24T02:56:06;10.50;99.90
20722;DHT22;10522;52.198;9.890;2023-04-24T02:58:32;10.40;99.90
20722;DHT22;10522;52.198;9.890;2023-04-24T03:00:58;10.30;99.90
20722;DHT22;10522;52.198;9.890;2023-04-24T03:03:23;10.30;99.90
20722;DHT22;10522;52.198;9.890;2023-04-24T03:05:49;10.30;99.90
20722;DHT22;10522;52.198;9.890;2023-04-24T03:08:15;10.20;99.90
20722;DHT22;10522;52.198;9.890;2023-04-24T03:10:41;10.10;99.90
20722;DHT22;10522;52.198;9.890;2023-04-24T03:13:07;10.10;99.90
20722;DHT22;10522;52.198;9.890;2023-04-24T03:15:32;10.10;99.90
20722;DHT22;10522;52.198;9.890;2023-04-24T03:17:58;10.00;99.90
20722;DHT22;10522;52.198;9.890;2023-04-24T03:20:24;10.00;99.90
20722;DHT22;10522;52.198;9.890;2023-04-24T03:22:49;9.90;99.90
20722;DHT22;10522;52.198;9.890;2023-04-24T03:25:15;9.90;99.90
20722;DHT22;10522;52.198;9.890;2023-04-24T03:27:40;9.90;99.90
20722;DHT22;10522;52.198;9.890;2023-04-24T03:30:07;9.90;99.90
20722;DHT22;10522;52.198;9.890;2023-04-24T03:32:33;9.80;99.90
20722;DHT22;10522;52.198;9.890;2023-04-24T03:34:58;9.80;99.90
20722;DHT22;10522;52.198;9.890;2023-04-24T03:37:24;9.80;99.90
20722;DHT22;10522;52.198;9.890;2023-04-24T03:39:49;9.80;99.90
20722;DHT22;10522;52.198;9.890;2023-04-24T03:42:15;9.80;99.90
20722;DHT22;10522;52.198;9.890;2023-04-24T03:44:41;9.80;99.90
20722;DHT22;10522;52.198;9.890;2023-04-24T03:47:06;9.80;99.90
20722;DHT22;10522;52.198;9.890;2023-04-24T03:49:32;9.80;99.90
20722;DHT22;10522;52.198;9.890;2023-04-24T03:51:58;9.70;99.90
20722;DHT22;10522;52.198;9.890;2023-04-24T03:54:23;9.80;99.90
20722;DHT22;10522;52.198;9.890;2023-04-24T03:56:49;9.90;99.90
20722;DHT22;10522;52.198;9.890;2023-04-24T03:59:14;9.90;99.90
20722;DHT22;10522;52.198;9.890;2023-04-24T04:01:40;9.80;99.90
20722;DHT22;10522;52.198;9.890;2023-04-24T04:04:06;9.70;99.90
20722;DHT22;10522;52.198;9.890;2023-04-24T04:06:32;9.80;99.90
20722;DHT22;10522;52.198;9.890;2023-04-24T04:08:58;9.80;99.90
20722;DHT22;10522;52.198;9.890;2023-04-24T04:11:24;9.90;99.90
20722;DHT22;10522;52.198;9.890;2023-04-24T04:13:49;9.90;99.90
20722;DHT22;10522;52.198;9.890;2023-04-24T04:16:15;9.90;99.90
20722;DHT22;10522;52.198;9.890;2023-04-24T04:18:44;9.90;99.90
20722;DHT22;10522;52.198;9.890;2023-04-24T04:21:10;10.00;99.90
20722;DHT22;10522;52.198;9.890;2023-04-24T04:23:36;10.00;99.90
20722;DHT22;10522;52.198;9.890;2023-04-24T04:26:03;10.00;99.90
20722;DHT22;10522;52.198;9.890;2023-04-24T04:28:29;10.10;99.90
20722;DHT22;10522;52.198;9.890;2023-04-24T04:30:57;10.10;99.90
20722;DHT22;10522;52.198;9.890;2023-04-24T04:33:23;10.10;99.90
20722;DHT22;10522;52.198;9.890;2023-04-24T04:35:49;10.10;99.90
20722;DHT22;10522;52.198;9.890;2023-04-24T04:38:17;10.10;99.90
20722;DHT22;10522;52.198;9.890;2023-04-24T04:40:44;10.20;99.90
20722;DHT22;10522;52.198;9.890;2023-04-24T04:43:09;10.30;99.90
20722;DHT22;10522;52.198;9.890;2023-04-24T04:45:37;10.30;99.90
20722;DHT22;10522;52.198;9.890;2023-04-24T04:48:04;10.40;99.90
20722;DHT22;10522;52.198;9.890;2023-04-24T04:50:29;10.50;99.90
20722;DHT22;10522;52.198;9.890;2023-04-24T04:52:55;10.50;99.90
20722;DHT22;10522;52.198;9.890;2023-04-24T04:55:21;10.50;99.90
20722;DHT22;10522;52.198;9.890;2023-04-24T04:57:46;10.60;99.90
20722;DHT22;10522;52.198;9.890;2023-04-24T05:00:12;10.60;99.90
20722;DHT22;10522;52.198;9.890;2023-04-24T05:02:38;10.70;99.90
20722;DHT22;10522;52.198;9.890;2023-04-24T05:05:05;10.80;99.90
20722;DHT22;10522;52.198;9.890;2023-04-24T05:07:31;10.80;99.90
20722;DHT22;10522;52.198;9.890;2023-04-24T05:09:57;10.90;99.90
20722;DHT22;10522;52.198;9.890;2023-04-24T05:12:22;10.90;99.90
20722;DHT22;10522;52.198;9.890;2023-04-24T05:14:48;10.90;99.90
20722;DHT22;10522;52.198;9.890;2023-04-24T05:17:14;10.90;99.90
20722;DHT22;10522;52.198;9.890;2023-04-24T05:19:40;11.00;99.90
20722;DHT22;10522;52.198;9.890;2023-04-24T05:22:06;11.00;99.90
20722;DHT22;10522;52.198;9.890;2023-04-24T05:24:35;11.10;99.90
20722;DHT22;10522;52.198;9.890;2023-04-24T05:27:02;11.10;99.90
20722;DHT22;10522;52.198;9.890;2023-04-24T05:29:28;11.10;99.90
20722;DHT22;10522;52.198;9.890;2023-04-24T05:31:56;11.20;99.90
20722;DHT22;10522;52.198;9.890;2023-04-24T05:34:21;11.20;99.90
20722;DHT22;10522;52.198;9.890;2023-04-24T05:36:47;11.20;99.90
20722;DHT22;10522;52.198;9.890;2023-04-24T05:39:13;11.30;99.90
20722;DHT22;10522;52.198;9.890;2023-04-24T05:41:39;11.30;99.90
20722;DHT22;10522;52.198;9.890;2023-04-24T05:44:05;11.40;99.90
20722;DHT22;10522;52.198;9.890;2023-04-24T05:46:30;11.30;99.90
20722;DHT22;10522;52.198;9.890;2023-04-24T05:48:56;11.30;99.90
20722;DHT22;10522;52.198;9.890;2023-04-24T05:51:21;11.30;99.90
20722;DHT22;10522;52.198;9.890;2023-04-24T05:53:47;11.40;99.90
20722;DHT22;10522;52.198;9.890;2023-04-24T05:56:13;11.50;99.90
20722;DHT22;10522;52.198;9.890;2023-04-24T05:58:38;11.60;99.90
20722;DHT22;10522;52.198;9.890;2023-04-24T06:01:05;11.70;99.90
20722;DHT22;10522;52.198;9.890;2023-04-24T06:03:31;11.70;99.90
20722;DHT22;10522;52.198;9.890;2023-04-24T06:05:57;11.80;99.90
20722;DHT22;10522;52.198;9.890;2023-04-24T06:08:22;11.80;99.90
20722;DHT22;10522;52.198;9.890;2023-04-24T06:10:48;11.90;99.90
20722;DHT22;10522;52.198;9.890;2023-04-24T06:13:13;12.00;99.90
20722;DHT22;10522;52.198;9.890;2023-04-24T06:15:39;11.90;99.90
20722;DHT22;10522;52.198;9.890;2023-04-24T06:18:06;11.80;99.90
20722;DHT22;10522;52.198;9.890;2023-04-24T06:20:31;11.80;99.90
20722;DHT22;10522;52.198;9.890;2023-04-24T06:22:57;11.70;99.90
20722;DHT22;10522;52.198;9.890;2023-04-24T06:25:25;11.50;99.90
20722;DHT22;10522;52.198;9.890;2023-04-24T06:27:50;11.10;99.90
20722;DHT22;10522;52.198;9.890;2023-04-24T06:30:16;10.90;99.90
20722;DHT22;10522;52.198;9.890;2023-04-24T06:32:42;10.70;99.90
20722;DHT22;10522;52.198;9.890;2023-04-24T06:35:07;10.60;99.90
20722;DHT22;10522;52.198;9.890;2023-04-24T06:37:35;10.60;99.90
20722;DHT22;10522;52.198;9.890;2023-04-24T06:40:01;10.50;99.90
20722;DHT22;10522;52.198;9.890;2023-04-24T06:42:26;10.40;99.90
20722;DHT22;10522;52.198;9.890;2023-04-24T06:44:53;10.40;99.90
20722;DHT22;10522;52.198;9.890;2023-04-24T06:47:19;10.40;99.90
20722;DHT22;10522;52.198;9.890;2023-04-24T06:49:44;10.50;99.90
20722;DHT22;10522;52.198;9.890;2023-04-24T06:52:10;10.60;99.90
20722;DHT22;10522;52.198;9.890;2023-04-24T06:54:35;10.60;99.90
20722;DHT22;10522;52.198;9.890;2023-04-24T06:57:01;10.60;99.90
20722;DHT22;10522;52.198;9.890;2023-04-24T06:59:28;10.60;99.90
20722;DHT22;10522;52.198;9.890;2023-04-24T07:01:54;10.70;99.90
20722;DHT22;10522;52.198;9.890;2023-04-24T07:04:20;10.80;99.90
20722;DHT22;10522;52.198;9.890;2023-04-24T07:06:46;10.90;99.90
20722;DHT22;10522;52.198;9.890;2023-04-24T07:09:12;11.00;99.90
20722;DHT22;10522;52.198;9.890;2023-04-24T07:11:39;11.10;99.90
20722;DHT22;10522;52.198;9.890;2023-04-24T07:14:06;11.20;99.90
20722;DHT22;10522;52.198;9.890;2023-04-24T07:16:32;11.20;99.90
20722;DHT22;10522;52.198;9.890;2023-04-24T07:18:57;11.20;99.90
20722;DHT22;10522;52.198;9.890;2023-04-24T07:21:23;11.20;99.90
20722;DHT22;10522;52.198;9.890;2023-04-24T07:23:48;11.20;99.90
20722;DHT22;10522;52.198;9.890;2023-04-24T07:26:14;11.30;99.90
20722;DHT22;10522;52.198;9.890;2023-04-24T07:28:40;11.50;99.90
20722;DHT22;10522;52.198;9.890;2023-04-24T07:31:06;11.70;99.90
20722;DHT22;10522;52.198;9.890;2023-04-24T07:33:32;11.80;99.90
20722;DHT22;10522;52.198;9.890;2023-04-24T07:35:58;11.70;99.90
20722;DHT22;10522;52.198;9.890;2023-04-24T07:38:24;11.80;99.90
20722;DHT22;10522;52.198;9.890;2023-04-24T07:40:51;11.80;99.90
20722;DHT22;10522;52.198;9.890;2023-04-24T07:43:19;12.00;99.90
20722;DHT22;10522;52.198;9.890;2023-04-24T07:45:45;12.30;99.90
20722;DHT22;10522;52.198;9.890;2023-04-24T07:48:11;12.60;99.90
20722;DHT22;10522;52.198;9.890;2023-04-24T07:50:39;12.70;99.90
20722;DHT22;10522;52.198;9.890;2023-04-24T07:53:04;12.80;99.90
20722;DHT22;10522;52.198;9.890;2023-04-24T07:55:30;12.70;99.90
20722;DHT22;10522;52.198;9.890;2023-04-24T07:57:55;12.70;99.90
20722;DHT22;10522;52.198;9.890;2023-04-24T08:00:21;12.30;99.90
20722;DHT22;10522;52.198;9.890;2023-04-24T08:02:47;12.40;99.90
20722;DHT22;10522;52.198;9.890;2023-04-24T08:05:12;12.70;99.90
20722;DHT22;10522;52.198;9.890;2023-04-24T08:07:38;12.30;99.90
20722;DHT22;10522;52.198;9.890;2023-04-24T08:10:04;12.30;99.90
20722;DHT22;10522;52.198;9.890;2023-04-24T08:12:30;12.40;99.90
20722;DHT22;10522;52.198;9.890;2023-04-24T08:14:56;12.00;99.90
20722;DHT22;10522;52.198;9.890;2023-04-24T08:17:21;12.20;99.90
20722;DHT22;10522;52.198;9.890;2023-04-24T08:19:47;12.70;99.90
20722;DHT22;10522;52.198;9.890;2023-04-24T08:22:14;12.80;99.90
20722;DHT22;10522;52.198;9.890;2023-04-24T08:24:40;12.80;99.90
20722;DHT22;10522;52.198;9.890;2023-04-24T08:27:06;12.80;99.90
20722;DHT22;10522;52.198;9.890;2023-04-24T08:29:32;12.70;99.90
20722;DHT22;10522;52.198;9.890;2023-04-24T08:31:57;12.90;99.90
20722;DHT22;10522;52.198;9.890;2023-04-24T08:34:23;12.80;99.90
20722;DHT22;10522;52.198;9.890;2023-04-24T08:36:49;13.00;99.90
20722;DHT22;10522;52.198;9.890;2023-04-24T08:39:15;12.90;99.90
20722;DHT22;10522;52.198;9.890;2023-04-24T08:41:42;13.00;99.90
20722;DHT22;10522;52.198;9.890;2023-04-24T08:44:12;13.00;99.90
20722;DHT22;10522;52.198;9.890;2023-04-24T08:46:40;13.20;99.90
20722;DHT22;10522;52.198;9.890;2023-04-24T08:49:06;13.00;99.90
20722;DHT22;10522;52.198;9.890;2023-04-24T08:51:31;12.90;99.90
20722;DHT22;10522;52.198;9.890;2023-04-24T08:53:58;12.80;99.90
20722;DHT22;10522;52.198;9.890;2023-04-24T08:56:23;12.60;99.90
20722;DHT22;10522;52.198;9.890;2023-04-24T08:58:51;12.50;99.90
20722;DHT22;10522;52.198;9.890;2023-04-24T09:01:19;12.20;99.90
20722;DHT22;10522;52.198;9.890;2023-04-24T09:03:49;12.20;99.90
20722;DHT22;10522;52.198;9.890;2023-04-24T09:06:16;12.20;99.90
20722;DHT22;10522;52.198;9.890;2023-04-24T09:08:43;12.40;99.90
20722;DHT22;10522;52.198;9.890;2023-04-24T09:11:11;12.60;99.90
20722;DHT22;10522;52.198;9.890;2023-04-24T09:13:36;12.70;99.90
20722;DHT22;10522;52.198;9.890;2023-04-24T09:16:03;12.90;99.90
20722;DHT22;10522;52.198;9.890;2023-04-24T09:18:28;12.60;99.90
20722;DHT22;10522;52.198;9.890;2023-04-24T09:21:08;12.40;99.90
20722;DHT22;10522;52.198;9.890;2023-04-24T09:23:34;12.60;99.90
20722;DHT22;10522;52.198;9.890;2023-04-24T09:26:01;12.60;99.90
20722;DHT22;10522;52.198;9.890;2023-04-24T09:28:32;12.50;99.90
20722;DHT22;10522;52.198;9.890;2023-04-24T09:31:13;12.30;99.90
20722;DHT22;10522;52.198;9.890;2023-04-24T09:34:20;12.20;99.90
20722;DHT22;10522;52.198;9.890;2023-04-24T09:36:46;12.10;99.90
20722;DHT22;10522;52.198;9.890;2023-04-24T09:39:14;12.40;99.90
20722;DHT22;10522;52.198;9.890;2023-04-24T09:41:56;13.10;99.90
20722;DHT22;10522;52.198;9.890;2023-04-24T09:44:25;13.70;99.90
20722;DHT22;10522;52.198;9.890;2023-04-24T09:46:57;13.50;99.90
20722;DHT22;10522;52.198;9.890;2023-04-24T09:49:30;13.40;99.90
20722;DHT22;10522;52.198;9.890;2023-04-24T09:52:10;13.40;99.90
20722;DHT22;10522;52.198;9.890;2023-04-24T09:54:37;13.40;99.90
20722;DHT22;10522;52.198;9.890;2023-04-24T09:57:03;13.20;99.90
20722;DHT22;10522;52.198;9.890;2023-04-24T09:59:30;13.00;99.90
20722;DHT22;10522;52.198;9.890;2023-04-24T10:01:56;12.90;99.90
20722;DHT22;10522;52.198;9.890;2023-04-24T10:04:25;12.80;99.90
20722;DHT22;10522;52.198;9.890;2023-04-24T10:06:53;12.80;99.90
20722;DHT22;10522;52.198;9.890;2023-04-24T10:09:21;12.80;99.90
20722;DHT22;10522;52.198;9.890;2023-04-24T10:11:49;12.70;99.90
20722;DHT22;10522;52.198;9.890;2023-04-24T10:14:19;12.50;99.90
20722;DHT22;10522;52.198;9.890;2023-04-24T10:16:49;12.30;99.90
20722;DHT22;10522;52.198;9.890;2023-04-24T10:19:16;12.20;99.90
20722;DHT22;10522;52.198;9.890;2023-04-24T10:21:44;12.00;99.90
20722;DHT22;10522;52.198;9.890;2023-04-24T10:24:17;12.10;99.90
20722;DHT22;10522;52.198;9.890;2023-04-24T10:26:45;11.90;99.90
20722;DHT22;10522;52.198;9.890;2023-04-24T10:29:16;11.80;99.90
20722;DHT22;10522;52.198;9.890;2023-04-24T10:31:42;12.00;99.90
20722;DHT22;10522;52.198;9.890;2023-04-24T10:34:10;12.10;99.90
20722;DHT22;10522;52.198;9.890;2023-04-24T10:36:39;12.30;99.90
20722;DHT22;10522;52.198;9.890;2023-04-24T10:39:09;12.50;99.90
20722;DHT22;10522;52.198;9.890;2023-04-24T10:41:37;12.60;99.90
20722;DHT22;10522;52.198;9.890;2023-04-24T10:44:14;12.80;99.90
20722;DHT22;10522;52.198;9.890;2023-04-24T10:46:45;13.00;99.90
20722;DHT22;10522;52.198;9.890;2023-04-24T10:49:11;13.30;99.90
20722;DHT22;10522;52.198;9.890;2023-04-24T10:51:51;13.90;99.90
20722;DHT22;10522;52.198;9.890;2023-04-24T11:00:14;13.40;99.90
20722;DHT22;10522;52.198;9.890;2023-04-24T11:02:40;13.00;99.90
20722;DHT22;10522;52.198;9.890;2023-04-24T11:05:09;12.70;99.90
20722;DHT22;10522;52.198;9.890;2023-04-24T11:08:14;12.50;99.90
20722;DHT22;10522;52.198;9.890;2023-04-24T11:10:45;12.30;99.90
20722;DHT22;10522;52.198;9.890;2023-04-24T11:13:15;12.30;99.90
20722;DHT22;10522;52.198;9.890;2023-04-24T11:15:42;12.80;99.90
20722;DHT22;10522;52.198;9.890;2023-04-24T11:18:14;13.70;99.90
20722;DHT22;10522;52.198;9.890;2023-04-24T11:20:44;13.80;99.90
20722;DHT22;10522;52.198;9.890;2023-04-24T11:23:12;14.50;99.90
20722;DHT22;10522;52.198;9.890;2023-04-24T11:25:38;14.40;99.90
20722;DHT22;10522;52.198;9.890;2023-04-24T11:28:05;14.20;99.90
20722;DHT22;10522;52.198;9.890;2023-04-24T11:30:32;13.80;99.90
20722;DHT22;10522;52.198;9.890;2023-04-24T11:33:05;13.70;99.90
20722;DHT22;10522;52.198;9.890;2023-04-24T11:35:36;13.60;99.90
20722;DHT22;10522;52.198;9.890;2023-04-24T11:38:04;13.30;99.90
20722;DHT22;10522;52.198;9.890;2023-04-24T11:40:30;13.30;99.90
20722;DHT22;10522;52.198;9.890;2023-04-24T11:42:56;13.20;99.90
20722;DHT22;10522;52.198;9.890;2023-04-24T11:45:27;13.00;99.90
20722;DHT22;10522;52.198;9.890;2023-04-24T11:47:53;13.10;99.90
20722;DHT22;10522;52.198;9.890;2023-04-24T11:50:22;13.10;99.90
20722;DHT22;10522;52.198;9.890;2023-04-24T11:52:49;13.20;99.90
20722;DHT22;10522;52.198;9.890;2023-04-24T11:57:43;13.50;99.90
20722;DHT22;10522;52.198;9.890;2023-04-24T12:00:19;14.00;99.90
20722;DHT22;10522;52.198;9.890;2023-04-24T12:02:46;14.60;99.90
20722;DHT22;10522;52.198;9.890;2023-04-24T12:05:24;15.10;99.90
20722;DHT22;10522;52.198;9.890;2023-04-24T12:07:49;14.30;99.90
20722;DHT22;10522;52.198;9.890;2023-04-24T12:10:23;13.60;99.90
20722;DHT22;10522;52.198;9.890;2023-04-24T12:12:50;13.40;99.90
20722;DHT22;10522;52.198;9.890;2023-04-24T12:15:18;13.20;99.90
20722;DHT22;10522;52.198;9.890;2023-04-24T12:17:44;13.10;99.90
20722;DHT22;10522;52.198;9.890;2023-04-24T12:20:10;13.00;99.90
20722;DHT22;10522;52.198;9.890;2023-04-24T12:22:48;12.70;99.90
20722;DHT22;10522;52.198;9.890;2023-04-24T12:25:15;12.00;99.90
20722;DHT22;10522;52.198;9.890;2023-04-24T12:27:41;11.40;99.90
20722;DHT22;10522;52.198;9.890;2023-04-24T12:30:14;10.80;99.90
20722;DHT22;10522;52.198;9.890;2023-04-24T12:32:50;10.50;99.90
20722;DHT22;10522;52.198;9.890;2023-04-24T12:35:22;10.40;99.90
20722;DHT22;10522;52.198;9.890;2023-04-24T12:37:48;10.40;99.90
20722;DHT22;10522;52.198;9.890;2023-04-24T12:40:15;10.60;99.90
20722;DHT22;10522;52.198;9.890;2023-04-24T12:42:49;11.00;99.90
20722;DHT22;10522;52.198;9.890;2023-04-24T12:45:15;11.60;99.90
20722;DHT22;10522;52.198;9.890;2023-04-24T12:47:42;12.60;99.90
20722;DHT22;10522;52.198;9.890;2023-04-24T12:50:13;13.60;99.90
20722;DHT22;10522;52.198;9.890;2023-04-24T12:52:39;13.30;99.90
20722;DHT22;10522;52.198;9.890;2023-04-24T12:55:06;12.40;99.90
20722;DHT22;10522;52.198;9.890;2023-04-24T12:57:36;12.10;99.90
20722;DHT22;10522;52.198;9.890;2023-04-24T13:00:03;12.70;99.90
20722;DHT22;10522;52.198;9.890;2023-04-24T13:02:30;12.60;99.90
20722;DHT22;10522;52.198;9.890;2023-04-24T13:04:57;12.60;99.90
20722;DHT22;10522;52.198;9.890;2023-04-24T13:07:23;12.00;99.90
20722;DHT22;10522;52.198;9.890;2023-04-24T13:09:49;11.90;99.90
20722;DHT22;10522;52.198;9.890;2023-04-24T13:12:16;11.90;99.90
20722;DHT22;10522;52.198;9.890;2023-04-24T13:14:41;11.40;99.90
20722;DHT22;10522;52.198;9.890;2023-04-24T13:17:07;11.00;99.90
20722;DHT22;10522;52.198;9.890;2023-04-24T13:19:37;11.20;99.90
20722;DHT22;10522;52.198;9.890;2023-04-24T13:22:03;11.40;99.90
20722;DHT22;10522;52.198;9.890;2023-04-24T13:24:29;11.30;99.90
20722;DHT22;10522;52.198;9.890;2023-04-24T13:26:56;11.10;99.90
20722;DHT22;10522;52.198;9.890;2023-04-24T13:29:22;11.00;99.90
20722;DHT22;10522;52.198;9.890;2023-04-24T13:31:50;10.90;99.90
20722;DHT22;10522;52.198;9.890;2023-04-24T13:34:19;10.70;99.90
20722;DHT22;10522;52.198;9.890;2023-04-24T13:36:45;10.70;99.90
20722;DHT22;10522;52.198;9.890;2023-04-24T13:39:10;10.80;99.90
20722;DHT22;10522;52.198;9.890;2023-04-24T13:41:36;11.10;99.90
20722;DHT22;10522;52.198;9.890;2023-04-24T13:44:02;11.00;99.90
20722;DHT22;10522;52.198;9.890;2023-04-24T13:46:28;10.80;99.90
20722;DHT22;10522;52.198;9.890;2023-04-24T13:48:54;10.60;99.90
20722;DHT22;10522;52.198;9.890;2023-04-24T13:51:19;10.30;99.90
20722;DHT22;10522;52.198;9.890;2023-04-24T13:53:45;10.30;99.90
20722;DHT22;10522;52.198;9.890;2023-04-24T13:56:11;10.20;99.90
20722;DHT22;10522;52.198;9.890;2023-04-24T13:58:38;10.00;99.90
20722;DHT22;10522;52.198;9.890;2023-04-24T14:01:04;9.80;99.90
20722;DHT22;10522;52.198;9.890;2023-04-24T14:03:30;9.60;99.90
20722;DHT22;10522;52.198;9.890;2023-04-24T14:05:56;9.50;99.90
20722;DHT22;10522;52.198;9.890;2023-04-24T14:08:21;9.50;99.90
20722;DHT22;10522;52.198;9.890;2023-04-24T14:10:47;9.40;99.90
20722;DHT22;10522;52.198;9.890;2023-04-24T14:13:13;9.30;99.90
20722;DHT22;10522;52.198;9.890;2023-04-24T14:15:38;9.30;99.90
20722;DHT22;10522;52.198;9.890;2023-04-24T14:18:04;9.30;99.90
20722;DHT22;10522;52.198;9.890;2023-04-24T14:20:30;9.20;99.90
20722;DHT22;10522;52.198;9.890;2023-04-24T14:22:56;9.20;99.90
20722;DHT22;10522;52.198;9.890;2023-04-24T14:25:24;9.20;99.90
20722;DHT22;10522;52.198;9.890;2023-04-24T14:27:50;9.40;99.90
20722;DHT22;10522;52.198;9.890;2023-04-24T14:30:16;9.40;99.90
20722;DHT22;10522;52.198;9.890;2023-04-24T14:32:41;9.50;99.90
20722;DHT22;10522;52.198;9.890;2023-04-24T14:35:07;9.50;99.90
20722;DHT22;10522;52.198;9.890;2023-04-24T14:37:33;9.50;99.90
20722;DHT22;10522;52.198;9.890;2023-04-24T14:39:59;9.20;99.90
20722;DHT22;10522;52.198;9.890;2023-04-24T14:42:24;9.10;99.90
20722;DHT22;10522;52.198;9.890;2023-04-24T14:44:51;9.00;99.90
20722;DHT22;10522;52.198;9.890;2023-04-24T14:47:16;8.90;99.90
20722;DHT22;10522;52.198;9.890;2023-04-24T14:49:47;8.90;99.90
20722;DHT22;10522;52.198;9.890;2023-04-24T14:52:13;8.80;99.90
20722;DHT22;10522;52.198;9.890;2023-04-24T14:54:38;8.70;99.90
20722;DHT22;10522;52.198;9.890;2023-04-24T14:57:04;8.60;99.90
20722;DHT22;10522;52.198;9.890;2023-04-24T14:59:30;8.60;99.90
20722;DHT22;10522;52.198;9.890;2023-04-24T15:01:57;8.70;99.90
20722;DHT22;10522;52.198;9.890;2023-04-24T15:04:26;8.70;99.90
20722;DHT22;10522;52.198;9.890;2023-04-24T15:06:52;8.90;99.90
20722;DHT22;10522;52.198;9.890;2023-04-24T15:09:19;8.90;99.90
20722;DHT22;10522;52.198;9.890;2023-04-24T15:11:45;8.90;99.90
20722;DHT22;10522;52.198;9.890;2023-04-24T15:14:11;9.00;99.90
20722;DHT22;10522;52.198;9.890;2023-04-24T15:16:37;9.00;99.90
20722;DHT22;10522;52.198;9.890;2023-04-24T15:19:02;8.80;99.90
20722;DHT22;10522;52.198;9.890;2023-04-24T15:21:28;8.80;99.90
20722;DHT22;10522;52.198;9.890;2023-04-24T15:23:53;8.80;99.90
20722;DHT22;10522;52.198;9.890;2023-04-24T15:26:19;8.70;99.90
20722;DHT22;10522;52.198;9.890;2023-04-24T15:28:45;8.70;99.90
20722;DHT22;10522;52.198;9.890;2023-04-24T15:31:12;8.90;99.90
20722;DHT22;10522;52.198;9.890;2023-04-24T15:33:37;9.00;99.90
20722;DHT22;10522;52.198;9.890;2023-04-24T15:36:03;9.00;99.90
20722;DHT22;10522;52.198;9.890;2023-04-24T15:38:29;9.00;99.90